IBE250 LEMD-KMIA
Flight info
| Callsign | IBE250 |
|---|---|
| Flight time | N/A |
| Altitude | 34000 |
| Route | BARD3X BARDI INKIT EPOPO ARMED 42N020W 40N030W 38N040W 33N050W 30N060W 27N070W MILLE ZQA BR49V NICKO VIICE2 |
| Aircraft | A343/H-VGDW/C |
Departure
| Time | N/A |
|---|---|
| Airport | Adolfo Suárez Madrid–Barajas Airport (LEMD) |
Arrival
| Time | 2026-05-05 20:45 |
|---|---|
| Airport | Miami International Airport (KMIA) |
| Time | Latitude | Longitude | Altitude | Speed | Heading |
|---|---|---|---|---|---|
| 2026-05-05 17:55 | 29.76367 | -60.91110 | 36110 ft | 422 kts | 250° |
| 2026-05-05 17:55 | 29.75528 | -60.94348 | 36109 ft | 422 kts | 251° |
| 2026-05-05 17:56 | 29.73850 | -61.00777 | 36091 ft | 422 kts | 251° |
| 2026-05-05 17:56 | 29.72176 | -61.07239 | 36097 ft | 422 kts | 250° |
| 2026-05-05 17:57 | 29.70435 | -61.13712 | 36105 ft | 424 kts | 251° |
| 2026-05-05 17:57 | 29.68708 | -61.20213 | 36121 ft | 424 kts | 250° |
| 2026-05-05 17:58 | 29.67000 | -61.26700 | 36104 ft | 424 kts | 249° |
| 2026-05-05 17:58 | 29.65251 | -61.33180 | 36096 ft | 424 kts | 250° |
| 2026-05-05 17:59 | 29.63541 | -61.39688 | 36107 ft | 427 kts | 250° |
| 2026-05-05 17:59 | 29.61814 | -61.46172 | 36109 ft | 426 kts | 250° |
| 2026-05-05 18:00 | 29.60058 | -61.52680 | 36100 ft | 426 kts | 250° |
| 2026-05-05 18:00 | 29.58295 | -61.59190 | 36099 ft | 426 kts | 250° |
| 2026-05-05 18:01 | 29.56853 | -61.64611 | 36109 ft | 426 kts | 250° |
| 2026-05-05 18:01 | 29.55137 | -61.71131 | 36107 ft | 426 kts | 250° |
| 2026-05-05 18:02 | 29.53375 | -61.77643 | 36090 ft | 426 kts | 250° |
| 2026-05-05 18:02 | 29.51605 | -61.84140 | 36096 ft | 426 kts | 250° |
| 2026-05-05 18:03 | 29.49796 | -61.90612 | 36099 ft | 426 kts | 250° |
| 2026-05-05 18:03 | 29.48032 | -61.97117 | 36093 ft | 427 kts | 249° |
| 2026-05-05 18:04 | 29.46258 | -62.03577 | 36090 ft | 428 kts | 249° |
| 2026-05-05 18:04 | 29.44495 | -62.10110 | 36082 ft | 429 kts | 249° |
| 2026-05-05 18:05 | 29.42674 | -62.16624 | 36082 ft | 429 kts | 249° |
| 2026-05-05 18:05 | 29.40867 | -62.23153 | 36099 ft | 429 kts | 249° |
| 2026-05-05 18:06 | 29.39095 | -62.29692 | 36069 ft | 429 kts | 249° |
| 2026-05-05 18:06 | 29.37318 | -62.36218 | 36088 ft | 428 kts | 249° |
| 2026-05-05 18:07 | 29.35508 | -62.42678 | 36087 ft | 428 kts | 248° |
| 2026-05-05 18:07 | 29.33678 | -62.49173 | 36087 ft | 428 kts | 248° |
| 2026-05-05 18:08 | 29.31864 | -62.55678 | 36083 ft | 429 kts | 248° |
| 2026-05-05 18:08 | 29.30058 | -62.62203 | 36085 ft | 429 kts | 249° |
| 2026-05-05 18:09 | 29.28254 | -62.68730 | 36081 ft | 429 kts | 248° |
| 2026-05-05 18:09 | 29.26447 | -62.75197 | 36083 ft | 429 kts | 248° |
| 2026-05-05 18:10 | 29.24617 | -62.81696 | 36085 ft | 429 kts | 248° |
| 2026-05-05 18:10 | 29.22789 | -62.88177 | 36089 ft | 425 kts | 247° |
| 2026-05-05 18:11 | 29.20997 | -62.94595 | 36082 ft | 422 kts | 247° |
| 2026-05-05 18:11 | 29.19192 | -63.01001 | 36084 ft | 422 kts | 247° |
| 2026-05-05 18:12 | 29.17381 | -63.07412 | 36083 ft | 425 kts | 248° |
| 2026-05-05 18:12 | 29.15550 | -63.13867 | 36105 ft | 427 kts | 247° |
| 2026-05-05 18:13 | 29.13740 | -63.20257 | 36079 ft | 422 kts | 247° |
| 2026-05-05 18:13 | 29.11936 | -63.26626 | 36086 ft | 421 kts | 247° |
| 2026-05-05 18:14 | 29.10133 | -63.32998 | 36084 ft | 421 kts | 247° |
| 2026-05-05 18:14 | 29.08335 | -63.39373 | 36084 ft | 421 kts | 247° |
| 2026-05-05 18:15 | 29.06504 | -63.45740 | 36092 ft | 420 kts | 247° |
| 2026-05-05 18:15 | 29.04685 | -63.52057 | 36083 ft | 417 kts | 247° |
| 2026-05-05 18:16 | 29.02884 | -63.58314 | 36077 ft | 418 kts | 247° |
| 2026-05-05 18:16 | 29.01063 | -63.64649 | 36082 ft | 421 kts | 247° |
| 2026-05-05 18:17 | 28.99231 | -63.71009 | 36080 ft | 421 kts | 247° |
| 2026-05-05 18:17 | 28.97413 | -63.77368 | 36101 ft | 419 kts | 248° |
| 2026-05-05 18:18 | 28.95599 | -63.83678 | 36082 ft | 418 kts | 247° |
| 2026-05-05 18:18 | 28.93807 | -63.89980 | 36086 ft | 418 kts | 247° |
| 2026-05-05 18:19 | 28.91955 | -63.96269 | 36086 ft | 417 kts | 247° |
| 2026-05-05 18:19 | 28.90102 | -64.02550 | 36086 ft | 417 kts | 247° |
| 2026-05-05 18:20 | 28.88281 | -64.08794 | 36060 ft | 415 kts | 248° |
| 2026-05-05 18:20 | 28.86451 | -64.15055 | 36090 ft | 417 kts | 247° |
| 2026-05-05 18:21 | 28.84615 | -64.21330 | 36086 ft | 418 kts | 247° |
| 2026-05-05 18:21 | 28.82772 | -64.27623 | 36089 ft | 418 kts | 247° |
| 2026-05-05 18:22 | 28.80926 | -64.33912 | 36089 ft | 418 kts | 247° |
| 2026-05-05 18:22 | 28.79096 | -64.40142 | 36093 ft | 413 kts | 247° |
| 2026-05-05 18:23 | 28.77272 | -64.46326 | 36091 ft | 411 kts | 247° |
| 2026-05-05 18:23 | 28.75450 | -64.52494 | 36091 ft | 410 kts | 247° |
| 2026-05-05 18:24 | 28.73637 | -64.58621 | 36091 ft | 410 kts | 247° |
| 2026-05-05 18:24 | 28.71809 | -64.64800 | 36092 ft | 412 kts | 247° |
| 2026-05-05 18:25 | 28.69959 | -64.71045 | 36092 ft | 417 kts | 247° |
| 2026-05-05 18:25 | 28.68103 | -64.77263 | 36094 ft | 417 kts | 247° |
| 2026-05-05 18:26 | 28.66237 | -64.83515 | 36094 ft | 417 kts | 247° |
| 2026-05-05 18:26 | 28.64369 | -64.89768 | 36095 ft | 417 kts | 247° |
| 2026-05-05 18:27 | 28.62501 | -64.96009 | 36092 ft | 417 kts | 247° |
| 2026-05-05 18:27 | 28.60649 | -65.02242 | 36097 ft | 412 kts | 248° |
| 2026-05-05 18:28 | 28.57896 | -65.11470 | 36097 ft | 409 kts | 247° |
| 2026-05-05 18:28 | 28.56030 | -65.17593 | 36074 ft | 410 kts | 247° |
| 2026-05-05 18:29 | 28.54169 | -65.23713 | 36100 ft | 414 kts | 248° |
| 2026-05-05 18:29 | 28.52292 | -65.29912 | 36124 ft | 415 kts | 248° |
| 2026-05-05 18:30 | 28.50436 | -65.36102 | 36102 ft | 411 kts | 248° |
| 2026-05-05 18:30 | 28.48574 | -65.42231 | 36102 ft | 409 kts | 248° |
| 2026-05-05 18:31 | 28.46722 | -65.48295 | 36100 ft | 409 kts | 248° |
| 2026-05-05 18:31 | 28.44846 | -65.54442 | 36102 ft | 409 kts | 248° |
| 2026-05-05 18:32 | 28.42995 | -65.60509 | 36103 ft | 409 kts | 248° |
| 2026-05-05 18:32 | 28.41131 | -65.66607 | 36105 ft | 407 kts | 248° |
| 2026-05-05 18:33 | 28.39277 | -65.72668 | 36107 ft | 406 kts | 248° |
| 2026-05-05 18:33 | 28.37420 | -65.78720 | 36110 ft | 406 kts | 248° |
| 2026-05-05 18:34 | 28.35559 | -65.84778 | 36107 ft | 406 kts | 248° |
| 2026-05-05 18:34 | 28.33696 | -65.90828 | 36107 ft | 406 kts | 248° |
| 2026-05-05 18:35 | 28.31844 | -65.96831 | 36110 ft | 405 kts | 248° |
| 2026-05-05 18:35 | 28.29981 | -66.02863 | 36105 ft | 404 kts | 248° |
| 2026-05-05 18:36 | 28.28117 | -66.08887 | 36104 ft | 405 kts | 248° |
| 2026-05-05 18:36 | 28.26252 | -66.14904 | 36106 ft | 405 kts | 248° |
| 2026-05-05 18:37 | 28.24382 | -66.20924 | 36104 ft | 404 kts | 248° |
| 2026-05-05 18:37 | 28.22508 | -66.26951 | 36110 ft | 405 kts | 249° |
| 2026-05-05 18:38 | 28.20644 | -66.32932 | 36098 ft | 404 kts | 249° |
| 2026-05-05 18:38 | 28.18770 | -66.38934 | 36104 ft | 404 kts | 249° |
| 2026-05-05 18:39 | 28.16889 | -66.44947 | 36102 ft | 404 kts | 249° |
| 2026-05-05 18:39 | 28.15010 | -66.50945 | 36100 ft | 404 kts | 249° |
| 2026-05-05 18:40 | 28.13124 | -66.56953 | 36108 ft | 404 kts | 249° |
| 2026-05-05 18:40 | 28.11252 | -66.62908 | 36105 ft | 403 kts | 249° |
| 2026-05-05 18:41 | 28.09372 | -66.68877 | 36099 ft | 402 kts | 249° |
| 2026-05-05 18:41 | 28.07491 | -66.74842 | 36100 ft | 402 kts | 249° |
| 2026-05-05 18:42 | 28.05606 | -66.80804 | 36087 ft | 402 kts | 249° |
| 2026-05-05 18:42 | 28.03714 | -66.86782 | 36104 ft | 404 kts | 249° |
| 2026-05-05 18:43 | 28.01817 | -66.92765 | 36108 ft | 403 kts | 249° |
| 2026-05-05 18:43 | 27.99922 | -66.98730 | 36102 ft | 402 kts | 249° |
| 2026-05-05 18:44 | 27.98040 | -67.04645 | 36104 ft | 402 kts | 249° |
| 2026-05-05 18:44 | 27.96142 | -67.10600 | 36105 ft | 402 kts | 249° |
| 2026-05-05 18:45 | 27.94242 | -67.16551 | 36100 ft | 402 kts | 249° |
| 2026-05-05 18:45 | 27.92338 | -67.22504 | 36123 ft | 402 kts | 249° |
| 2026-05-05 18:46 | 27.90432 | -67.28455 | 36105 ft | 402 kts | 249° |
| 2026-05-05 18:46 | 27.88527 | -67.34393 | 36106 ft | 402 kts | 249° |
| 2026-05-05 18:47 | 27.86630 | -67.40293 | 36100 ft | 403 kts | 249° |
| 2026-05-05 18:47 | 27.84710 | -67.46256 | 36099 ft | 403 kts | 249° |
| 2026-05-05 18:48 | 27.82789 | -67.52212 | 36099 ft | 403 kts | 249° |
| 2026-05-05 18:48 | 27.80866 | -67.58164 | 36105 ft | 402 kts | 249° |
| 2026-05-05 18:49 | 27.78948 | -67.64094 | 36103 ft | 402 kts | 249° |
| 2026-05-05 18:49 | 27.77027 | -67.70019 | 36100 ft | 402 kts | 249° |
| 2026-05-05 18:50 | 27.75115 | -67.75906 | 36103 ft | 402 kts | 249° |
| 2026-05-05 18:50 | 27.73190 | -67.81827 | 36103 ft | 402 kts | 249° |
| 2026-05-05 18:51 | 27.71262 | -67.87745 | 36102 ft | 402 kts | 249° |
| 2026-05-05 18:51 | 27.69331 | -67.93663 | 36090 ft | 403 kts | 249° |
| 2026-05-05 18:52 | 27.67388 | -67.99607 | 36100 ft | 404 kts | 249° |
| 2026-05-05 18:52 | 27.65441 | -68.05554 | 36096 ft | 404 kts | 249° |
| 2026-05-05 18:53 | 27.63817 | -68.10508 | 36097 ft | 404 kts | 249° |
| 2026-05-05 18:53 | 27.61862 | -68.16460 | 36105 ft | 405 kts | 249° |
| 2026-05-05 18:54 | 27.59906 | -68.22407 | 36108 ft | 404 kts | 249° |
| 2026-05-05 18:54 | 27.57955 | -68.28330 | 36102 ft | 403 kts | 249° |
| 2026-05-05 18:55 | 27.56012 | -68.34216 | 36099 ft | 403 kts | 249° |
| 2026-05-05 18:55 | 27.54055 | -68.40138 | 36099 ft | 403 kts | 249° |
| 2026-05-05 18:56 | 27.52095 | -68.46056 | 36102 ft | 403 kts | 249° |
| 2026-05-05 18:56 | 27.50131 | -68.51980 | 36103 ft | 404 kts | 249° |
| 2026-05-05 18:57 | 27.48161 | -68.57909 | 36099 ft | 404 kts | 249° |
| 2026-05-05 18:57 | 27.46187 | -68.63843 | 36099 ft | 404 kts | 249° |
| 2026-05-05 18:58 | 27.44213 | -68.69765 | 36102 ft | 404 kts | 249° |
| 2026-05-05 18:58 | 27.42247 | -68.75643 | 36099 ft | 404 kts | 249° |
| 2026-05-05 18:59 | 27.40269 | -68.81563 | 36097 ft | 404 kts | 249° |
| 2026-05-05 18:59 | 27.38289 | -68.87482 | 36111 ft | 404 kts | 249° |
| 2026-05-05 19:00 | 27.36309 | -68.93389 | 36101 ft | 402 kts | 249° |
| 2026-05-05 19:00 | 27.34331 | -68.99275 | 36102 ft | 402 kts | 249° |
| 2026-05-05 19:01 | 27.32352 | -69.05157 | 36062 ft | 402 kts | 249° |
| 2026-05-05 19:01 | 27.30370 | -69.11038 | 36099 ft | 406 kts | 249° |
| 2026-05-05 19:02 | 27.28363 | -69.16981 | 36099 ft | 407 kts | 249° |
| 2026-05-05 19:02 | 27.26355 | -69.22918 | 36094 ft | 406 kts | 249° |
| 2026-05-05 19:03 | 27.24347 | -69.28850 | 36098 ft | 404 kts | 249° |
| 2026-05-05 19:03 | 27.22358 | -69.34753 | 36104 ft | 404 kts | 249° |
| 2026-05-05 19:04 | 27.20348 | -69.40650 | 36098 ft | 404 kts | 249° |
| 2026-05-05 19:04 | 27.18331 | -69.46561 | 36096 ft | 405 kts | 249° |
| 2026-05-05 19:05 | 27.16323 | -69.52463 | 36100 ft | 404 kts | 249° |
| 2026-05-05 19:05 | 27.14328 | -69.58314 | 36098 ft | 403 kts | 249° |
| 2026-05-05 19:06 | 27.12315 | -69.64195 | 36082 ft | 404 kts | 249° |
| 2026-05-05 19:06 | 27.10287 | -69.70105 | 36093 ft | 406 kts | 249° |
| 2026-05-05 19:07 | 27.08251 | -69.76035 | 36093 ft | 407 kts | 249° |
| 2026-05-05 19:07 | 27.06658 | -69.80673 | 36096 ft | 407 kts | 249° |
| 2026-05-05 19:08 | 27.04622 | -69.86591 | 36109 ft | 407 kts | 249° |
| 2026-05-05 19:08 | 27.02604 | -69.92500 | 36091 ft | 405 kts | 249° |
| 2026-05-05 19:09 | 27.00570 | -69.98385 | 36089 ft | 405 kts | 249° |
| 2026-05-05 19:09 | 26.98658 | -70.04278 | 36089 ft | 404 kts | 252° |
| 2026-05-05 19:10 | 26.97069 | -70.10317 | 36089 ft | 404 kts | 254° |
| 2026-05-05 19:10 | 26.95499 | -70.16385 | 36089 ft | 404 kts | 253° |
| 2026-05-05 19:11 | 26.93873 | -70.22430 | 36098 ft | 404 kts | 253° |
| 2026-05-05 19:11 | 26.92224 | -70.28442 | 36091 ft | 404 kts | 253° |
| 2026-05-05 19:12 | 26.90567 | -70.34463 | 36088 ft | 404 kts | 253° |
| 2026-05-05 19:12 | 26.88909 | -70.40472 | 36090 ft | 404 kts | 253° |
| 2026-05-05 19:13 | 26.87260 | -70.46461 | 36093 ft | 404 kts | 253° |
| 2026-05-05 19:13 | 26.85596 | -70.52480 | 36083 ft | 405 kts | 253° |
| 2026-05-05 19:14 | 26.83913 | -70.58529 | 36085 ft | 403 kts | 253° |
| 2026-05-05 19:14 | 26.82257 | -70.64489 | 36083 ft | 403 kts | 253° |
| 2026-05-05 19:15 | 26.80595 | -70.70472 | 36084 ft | 402 kts | 253° |
| 2026-05-05 19:15 | 26.78934 | -70.76440 | 36083 ft | 402 kts | 253° |
| 2026-05-05 19:16 | 26.77260 | -70.82440 | 36080 ft | 402 kts | 253° |
| 2026-05-05 19:16 | 26.75590 | -70.88417 | 36096 ft | 402 kts | 253° |
| 2026-05-05 19:17 | 26.73917 | -70.94386 | 36054 ft | 402 kts | 253° |
| 2026-05-05 19:17 | 26.72232 | -71.00397 | 36082 ft | 406 kts | 253° |
| 2026-05-05 19:18 | 26.70548 | -71.06388 | 36079 ft | 406 kts | 253° |
| 2026-05-05 19:18 | 26.68850 | -71.12418 | 36076 ft | 406 kts | 253° |
| 2026-05-05 19:19 | 26.67151 | -71.18443 | 36076 ft | 406 kts | 253° |
| 2026-05-05 19:19 | 26.65450 | -71.24464 | 36081 ft | 406 kts | 253° |
| 2026-05-05 19:20 | 26.63746 | -71.30483 | 36080 ft | 406 kts | 253° |
| 2026-05-05 19:20 | 26.62039 | -71.36503 | 36075 ft | 406 kts | 253° |
| 2026-05-05 19:21 | 26.60341 | -71.42480 | 36074 ft | 406 kts | 253° |
| 2026-05-05 19:21 | 26.58626 | -71.48505 | 36076 ft | 406 kts | 253° |
| 2026-05-05 19:22 | 26.56910 | -71.54524 | 36080 ft | 406 kts | 253° |
| 2026-05-05 19:22 | 26.55194 | -71.60534 | 36078 ft | 405 kts | 253° |
| 2026-05-05 19:23 | 26.53482 | -71.66523 | 36073 ft | 404 kts | 253° |
| 2026-05-05 19:23 | 26.51767 | -71.72503 | 36074 ft | 404 kts | 253° |
| 2026-05-05 19:24 | 26.50049 | -71.78486 | 36067 ft | 404 kts | 253° |
| 2026-05-05 19:24 | 26.48327 | -71.84474 | 36073 ft | 405 kts | 253° |
| 2026-05-05 19:25 | 26.46617 | -71.90411 | 36072 ft | 404 kts | 253° |
| 2026-05-05 19:25 | 26.44893 | -71.96384 | 36072 ft | 403 kts | 254° |
| 2026-05-05 19:26 | 26.43171 | -72.02339 | 36064 ft | 403 kts | 254° |
| 2026-05-05 19:26 | 26.41446 | -72.08295 | 36064 ft | 403 kts | 254° |
| 2026-05-05 19:27 | 26.39719 | -72.14249 | 36067 ft | 403 kts | 254° |
| 2026-05-05 19:27 | 26.37990 | -72.20198 | 36067 ft | 403 kts | 254° |
| 2026-05-05 19:28 | 26.36273 | -72.26098 | 36074 ft | 403 kts | 254° |
| 2026-05-05 19:28 | 26.34544 | -72.32023 | 36054 ft | 402 kts | 254° |
| 2026-05-05 19:29 | 26.32805 | -72.37978 | 36066 ft | 405 kts | 254° |
| 2026-05-05 19:29 | 26.31057 | -72.43957 | 36063 ft | 406 kts | 254° |
| 2026-05-05 19:30 | 26.29304 | -72.49934 | 36069 ft | 405 kts | 254° |
| 2026-05-05 19:30 | 26.27552 | -72.55900 | 36069 ft | 405 kts | 254° |
| 2026-05-05 19:31 | 26.25796 | -72.61870 | 36066 ft | 405 kts | 255° |
| 2026-05-05 19:31 | 26.24043 | -72.67821 | 36060 ft | 404 kts | 255° |
| 2026-05-05 19:32 | 26.22291 | -72.73758 | 36064 ft | 404 kts | 255° |
| 2026-05-05 19:32 | 26.20533 | -72.79704 | 36058 ft | 404 kts | 255° |
| 2026-05-05 19:33 | 26.18787 | -72.85603 | 36058 ft | 404 kts | 255° |
| 2026-05-05 19:33 | 26.17027 | -72.91536 | 36060 ft | 404 kts | 255° |
| 2026-05-05 19:34 | 26.15263 | -72.97473 | 36055 ft | 404 kts | 255° |
| 2026-05-05 19:35 | 26.12600 | -73.06419 | 36059 ft | 408 kts | 255° |
| 2026-05-05 19:35 | 26.10810 | -73.12421 | 36059 ft | 409 kts | 255° |
| 2026-05-05 19:36 | 26.09015 | -73.18424 | 36061 ft | 409 kts | 255° |
| 2026-05-05 19:36 | 26.07221 | -73.24417 | 36059 ft | 409 kts | 255° |
| 2026-05-05 19:37 | 26.05433 | -73.30379 | 36059 ft | 409 kts | 255° |
| 2026-05-05 19:37 | 26.03631 | -73.36376 | 36058 ft | 409 kts | 255° |
| 2026-05-05 19:38 | 26.01823 | -73.42389 | 36058 ft | 409 kts | 255° |
| 2026-05-05 19:38 | 26.00010 | -73.48404 | 36056 ft | 409 kts | 255° |
| 2026-05-05 19:39 | 25.98199 | -73.54403 | 36055 ft | 409 kts | 255° |
| 2026-05-05 19:39 | 25.96395 | -73.60367 | 36057 ft | 410 kts | 255° |
| 2026-05-05 19:40 | 25.94575 | -73.66373 | 36045 ft | 410 kts | 256° |
| 2026-05-05 19:40 | 25.92749 | -73.72385 | 36042 ft | 412 kts | 256° |
| 2026-05-05 19:41 | 25.91395 | -73.77465 | 36054 ft | 412 kts | 260° |
| 2026-05-05 19:41 | 25.90062 | -73.83660 | 36050 ft | 412 kts | 261° |
| 2026-05-05 19:42 | 25.88731 | -73.89857 | 36051 ft | 412 kts | 260° |
| 2026-05-05 19:42 | 25.87342 | -73.96038 | 36048 ft | 413 kts | 260° |
| 2026-05-05 19:43 | 25.85927 | -74.02188 | 36041 ft | 413 kts | 261° |
| 2026-05-05 19:43 | 25.84492 | -74.08404 | 36048 ft | 416 kts | 261° |
| 2026-05-05 19:44 | 25.83053 | -74.14631 | 36047 ft | 416 kts | 261° |
| 2026-05-05 19:44 | 25.81619 | -74.20826 | 36047 ft | 416 kts | 261° |
| 2026-05-05 19:45 | 25.80173 | -74.27059 | 36045 ft | 416 kts | 261° |
| 2026-05-05 19:45 | 25.78727 | -74.33285 | 36045 ft | 416 kts | 261° |
| 2026-05-05 19:46 | 25.77279 | -74.39506 | 36043 ft | 417 kts | 261° |
| 2026-05-05 19:46 | 25.75823 | -74.45750 | 36041 ft | 419 kts | 261° |
| 2026-05-05 19:47 | 25.74361 | -74.52004 | 36045 ft | 419 kts | 261° |
| 2026-05-05 19:47 | 25.72894 | -74.58262 | 36027 ft | 419 kts | 261° |
| 2026-05-05 19:48 | 25.71423 | -74.64531 | 36034 ft | 420 kts | 261° |
| 2026-05-05 19:48 | 25.69954 | -74.70776 | 36037 ft | 421 kts | 261° |
| 2026-05-05 19:49 | 25.68474 | -74.77053 | 36033 ft | 421 kts | 261° |
| 2026-05-05 19:49 | 25.66987 | -74.83345 | 36034 ft | 421 kts | 261° |
| 2026-05-05 19:50 | 25.65499 | -74.89630 | 36035 ft | 421 kts | 261° |
| 2026-05-05 19:50 | 25.64009 | -74.95914 | 36034 ft | 421 kts | 261° |
| 2026-05-05 19:51 | 25.62516 | -75.02195 | 36034 ft | 421 kts | 261° |
| 2026-05-05 19:51 | 25.61020 | -75.08473 | 36031 ft | 422 kts | 262° |
| 2026-05-05 19:52 | 25.59526 | -75.14737 | 36028 ft | 423 kts | 262° |
| 2026-05-05 19:52 | 25.58018 | -75.21043 | 36029 ft | 423 kts | 262° |
| 2026-05-05 19:53 | 25.56507 | -75.27350 | 36029 ft | 423 kts | 262° |
| 2026-05-05 19:53 | 25.54994 | -75.33650 | 36029 ft | 424 kts | 262° |
| 2026-05-05 19:54 | 25.53475 | -75.39960 | 36026 ft | 423 kts | 262° |
| 2026-05-05 19:54 | 25.51955 | -75.46265 | 36019 ft | 425 kts | 263° |
| 2026-05-05 19:55 | 25.50423 | -75.52619 | 36020 ft | 428 kts | 263° |
| 2026-05-05 19:55 | 25.48880 | -75.58989 | 36022 ft | 428 kts | 263° |
| 2026-05-05 19:56 | 25.47344 | -75.65316 | 36019 ft | 428 kts | 263° |
| 2026-05-05 19:56 | 25.45794 | -75.71691 | 36024 ft | 428 kts | 263° |
| 2026-05-05 19:57 | 25.44240 | -75.78070 | 36019 ft | 428 kts | 263° |
| 2026-05-05 19:57 | 25.42685 | -75.84444 | 36024 ft | 429 kts | 263° |
| 2026-05-05 19:58 | 25.41127 | -75.90817 | 36022 ft | 429 kts | 263° |
| 2026-05-05 19:58 | 25.39574 | -75.97153 | 36021 ft | 429 kts | 263° |
| 2026-05-05 19:59 | 25.38007 | -76.03532 | 36021 ft | 429 kts | 263° |
| 2026-05-05 19:59 | 25.36439 | -76.09905 | 36023 ft | 429 kts | 263° |
| 2026-05-05 20:00 | 25.34868 | -76.16280 | 36016 ft | 430 kts | 263° |
| 2026-05-05 20:00 | 25.33291 | -76.22666 | 36023 ft | 431 kts | 263° |
| 2026-05-05 20:01 | 25.31710 | -76.29056 | 36020 ft | 431 kts | 263° |
| 2026-05-05 20:01 | 25.30123 | -76.35452 | 36017 ft | 432 kts | 263° |
| 2026-05-05 20:02 | 25.28539 | -76.41828 | 36019 ft | 433 kts | 263° |
| 2026-05-05 20:02 | 25.26940 | -76.48251 | 36011 ft | 433 kts | 263° |
| 2026-05-05 20:03 | 25.25335 | -76.54681 | 36020 ft | 434 kts | 263° |
| 2026-05-05 20:03 | 25.23727 | -76.61113 | 36012 ft | 435 kts | 263° |
| 2026-05-05 20:04 | 25.22114 | -76.67549 | 36013 ft | 435 kts | 263° |
| 2026-05-05 20:04 | 25.20499 | -76.73982 | 36015 ft | 434 kts | 263° |
| 2026-05-05 20:05 | 25.18881 | -76.80414 | 36018 ft | 434 kts | 263° |
| 2026-05-05 20:05 | 25.17261 | -76.86843 | 36000 ft | 435 kts | 263° |
| 2026-05-05 20:06 | 25.15637 | -76.93284 | 36019 ft | 435 kts | 265° |
| 2026-05-05 20:06 | 25.14118 | -76.99702 | 36017 ft | 435 kts | 265° |
| 2026-05-05 20:07 | 25.12570 | -77.06165 | 36016 ft | 436 kts | 265° |
| 2026-05-05 20:07 | 25.10959 | -77.12611 | 36020 ft | 436 kts | 264° |
| 2026-05-05 20:08 | 25.09316 | -77.19059 | 36024 ft | 436 kts | 264° |
| 2026-05-05 20:08 | 25.07665 | -77.25512 | 36018 ft | 438 kts | 264° |
| 2026-05-05 20:09 | 25.06007 | -77.32000 | 36033 ft | 440 kts | 264° |
| 2026-05-05 20:09 | 25.04346 | -77.38488 | 36031 ft | 440 kts | 264° |
| 2026-05-05 20:10 | 25.02897 | -77.45002 | 36040 ft | 431 kts | 271° |
| 2026-05-05 20:10 | 25.02422 | -77.51489 | 36040 ft | 426 kts | 275° |
| 2026-05-05 20:11 | 25.02084 | -77.58020 | 36033 ft | 427 kts | 275° |
| 2026-05-05 20:11 | 25.01771 | -77.64558 | 36028 ft | 427 kts | 275° |
| 2026-05-05 20:12 | 25.01464 | -77.71102 | 36025 ft | 427 kts | 275° |
| 2026-05-05 20:12 | 25.01157 | -77.77646 | 36027 ft | 427 kts | 275° |
| 2026-05-05 20:13 | 25.00848 | -77.84194 | 36014 ft | 427 kts | 275° |
| 2026-05-05 20:13 | 25.00536 | -77.90739 | 36016 ft | 427 kts | 275° |
| 2026-05-05 20:14 | 25.00222 | -77.97284 | 36015 ft | 427 kts | 275° |
| 2026-05-05 20:14 | 24.99904 | -78.03846 | 36016 ft | 429 kts | 275° |
| 2026-05-05 20:15 | 24.99583 | -78.10406 | 36017 ft | 429 kts | 275° |
| 2026-05-05 20:15 | 24.99258 | -78.16982 | 36014 ft | 429 kts | 275° |
| 2026-05-05 20:16 | 24.98808 | -78.23557 | 36017 ft | 431 kts | 273° |
| 2026-05-05 20:16 | 24.98251 | -78.30093 | 36015 ft | 431 kts | 273° |
| 2026-05-05 20:17 | 24.97707 | -78.36684 | 36016 ft | 431 kts | 273° |
| 2026-05-05 20:17 | 24.97169 | -78.43260 | 36014 ft | 430 kts | 273° |
| 2026-05-05 20:18 | 24.96633 | -78.49800 | 36015 ft | 430 kts | 273° |
| 2026-05-05 20:18 | 24.96092 | -78.56377 | 36014 ft | 431 kts | 273° |
| 2026-05-05 20:19 | 24.95648 | -78.62941 | 36020 ft | 425 kts | 279° |
| 2026-05-05 20:19 | 24.96380 | -78.69299 | 36001 ft | 417 kts | 286° |
| 2026-05-05 20:19 | 24.96861 | -78.72456 | 35882 ft | 418 kts | 286° |
| 2026-05-05 20:20 | 24.97335 | -78.75600 | 35703 ft | 412 kts | 286° |
| 2026-05-05 20:20 | 24.97793 | -78.78680 | 35419 ft | 405 kts | 286° |
| 2026-05-05 20:20 | 24.98249 | -78.81726 | 34693 ft | 409 kts | 286° |
| 2026-05-05 20:20 | 24.98716 | -78.84837 | 33963 ft | 414 kts | 286° |
| 2026-05-05 20:21 | 24.99192 | -78.88022 | 33162 ft | 417 kts | 285° |
| 2026-05-05 20:21 | 24.99657 | -78.91143 | 32428 ft | 419 kts | 285° |
| 2026-05-05 20:21 | 25.00130 | -78.94330 | 31622 ft | 422 kts | 284° |
| 2026-05-05 20:21 | 25.00605 | -78.97533 | 30836 ft | 425 kts | 284° |
| 2026-05-05 20:22 | 25.01079 | -79.00757 | 30146 ft | 426 kts | 283° |
| 2026-05-05 20:22 | 25.01548 | -79.03966 | 29529 ft | 422 kts | 283° |
| 2026-05-05 20:22 | 25.02014 | -79.07154 | 28956 ft | 418 kts | 283° |
| 2026-05-05 20:22 | 25.02601 | -79.10277 | 28396 ft | 412 kts | 289° |
| 2026-05-05 20:23 | 25.03700 | -79.13162 | 27814 ft | 407 kts | 301° |
| 2026-05-05 20:23 | 25.05191 | -79.15795 | 27235 ft | 404 kts | 304° |
| 2026-05-05 20:23 | 25.06742 | -79.18358 | 26659 ft | 400 kts | 304° |
| 2026-05-05 20:23 | 25.08264 | -79.20870 | 26109 ft | 398 kts | 304° |
| 2026-05-05 20:24 | 25.09794 | -79.23407 | 25546 ft | 395 kts | 304° |
| 2026-05-05 20:24 | 25.11310 | -79.25930 | 24975 ft | 394 kts | 304° |
| 2026-05-05 20:24 | 25.12820 | -79.28447 | 24407 ft | 392 kts | 303° |
| 2026-05-05 20:24 | 25.14321 | -79.30953 | 23822 ft | 391 kts | 303° |
| 2026-05-05 20:25 | 25.15814 | -79.33452 | 23384 ft | 385 kts | 303° |
| 2026-05-05 20:25 | 25.17262 | -79.35876 | 23240 ft | 372 kts | 303° |
| 2026-05-05 20:25 | 25.18660 | -79.38215 | 23104 ft | 359 kts | 303° |
| 2026-05-05 20:25 | 25.20013 | -79.40483 | 22961 ft | 348 kts | 303° |
| 2026-05-05 20:26 | 25.21341 | -79.42712 | 22446 ft | 347 kts | 303° |
| 2026-05-05 20:26 | 25.22670 | -79.44944 | 21980 ft | 347 kts | 304° |
| 2026-05-05 20:26 | 25.23993 | -79.47165 | 21506 ft | 346 kts | 304° |
| 2026-05-05 20:26 | 25.25317 | -79.49387 | 21033 ft | 346 kts | 304° |
| 2026-05-05 20:27 | 25.26195 | -79.50860 | 20716 ft | 346 kts | 304° |
| 2026-05-05 20:27 | 25.27518 | -79.53080 | 20254 ft | 346 kts | 304° |
| 2026-05-05 20:27 | 25.28844 | -79.55306 | 19771 ft | 346 kts | 304° |
| 2026-05-05 20:27 | 25.30597 | -79.58250 | 19126 ft | 346 kts | 304° |
| 2026-05-05 20:28 | 25.31920 | -79.60473 | 18652 ft | 345 kts | 304° |
| 2026-05-05 20:28 | 25.32812 | -79.61974 | 18334 ft | 345 kts | 304° |
| 2026-05-05 20:28 | 25.34110 | -79.64157 | 17817 ft | 343 kts | 304° |
| 2026-05-05 20:28 | 25.35418 | -79.66358 | 17315 ft | 341 kts | 304° |
| 2026-05-05 20:29 | 25.36716 | -79.68545 | 16833 ft | 339 kts | 304° |
| 2026-05-05 20:29 | 25.38006 | -79.70719 | 16361 ft | 337 kts | 304° |
| 2026-05-05 20:29 | 25.39291 | -79.72884 | 15884 ft | 336 kts | 303° |
| 2026-05-05 20:29 | 25.40615 | -79.74997 | 15510 ft | 332 kts | 306° |
| 2026-05-05 20:30 | 25.41962 | -79.77063 | 15218 ft | 332 kts | 306° |
| 2026-05-05 20:30 | 25.43310 | -79.79135 | 14916 ft | 330 kts | 305° |
| 2026-05-05 20:30 | 25.44644 | -79.81197 | 14530 ft | 330 kts | 305° |
| 2026-05-05 20:30 | 25.45974 | -79.83262 | 14178 ft | 328 kts | 305° |
| 2026-05-05 20:31 | 25.47294 | -79.85316 | 13830 ft | 327 kts | 305° |
| 2026-05-05 20:31 | 25.48612 | -79.87369 | 13440 ft | 326 kts | 304° |
| 2026-05-05 20:31 | 25.49916 | -79.89406 | 13109 ft | 324 kts | 304° |
| 2026-05-05 20:31 | 25.51223 | -79.91445 | 12775 ft | 324 kts | 304° |
| 2026-05-05 20:32 | 25.52519 | -79.93470 | 12430 ft | 321 kts | 304° |
| 2026-05-05 20:32 | 25.53811 | -79.95489 | 12109 ft | 321 kts | 304° |
| 2026-05-05 20:32 | 25.55094 | -79.97495 | 11789 ft | 317 kts | 304° |
| 2026-05-05 20:32 | 25.56349 | -79.99459 | 11605 ft | 307 kts | 304° |
| 2026-05-05 20:33 | 25.57559 | -80.01355 | 11370 ft | 294 kts | 304° |
| 2026-05-05 20:33 | 25.58707 | -80.03162 | 10959 ft | 278 kts | 304° |
| 2026-05-05 20:33 | 25.59807 | -80.04899 | 10562 ft | 277 kts | 304° |
| 2026-05-05 20:33 | 25.60923 | -80.06661 | 10297 ft | 281 kts | 304° |
| 2026-05-05 20:34 | 25.62025 | -80.08388 | 10097 ft | 277 kts | 304° |
| 2026-05-05 20:34 | 25.63139 | -80.10133 | 9761 ft | 278 kts | 304° |
| 2026-05-05 20:34 | 25.64253 | -80.11880 | 9397 ft | 277 kts | 304° |
| 2026-05-05 20:34 | 25.65339 | -80.13643 | 8999 ft | 276 kts | 300° |
| 2026-05-05 20:35 | 25.66224 | -80.15507 | 8778 ft | 272 kts | 296° |
| 2026-05-05 20:35 | 25.67039 | -80.17410 | 8553 ft | 272 kts | 295° |
| 2026-05-05 20:35 | 25.67839 | -80.19301 | 8279 ft | 271 kts | 295° |
| 2026-05-05 20:35 | 25.68639 | -80.21201 | 8055 ft | 271 kts | 295° |
| 2026-05-05 20:36 | 25.69438 | -80.23094 | 7880 ft | 271 kts | 295° |
| 2026-05-05 20:36 | 25.70230 | -80.24989 | 7607 ft | 270 kts | 295° |
| 2026-05-05 20:36 | 25.70984 | -80.26899 | 7267 ft | 270 kts | 290° |
| 2026-05-05 20:36 | 25.71286 | -80.28939 | 6955 ft | 269 kts | 272° |
| 2026-05-05 20:37 | 25.71235 | -80.31010 | 6775 ft | 268 kts | 268° |
| 2026-05-05 20:37 | 25.71130 | -80.33082 | 6543 ft | 268 kts | 268° |
| 2026-05-05 20:37 | 25.71025 | -80.35140 | 6265 ft | 268 kts | 268° |
| 2026-05-05 20:37 | 25.70921 | -80.37202 | 5907 ft | 267 kts | 268° |
| 2026-05-05 20:38 | 25.70819 | -80.39241 | 5606 ft | 265 kts | 269° |
| 2026-05-05 20:38 | 25.70715 | -80.41258 | 5429 ft | 265 kts | 269° |
| 2026-05-05 20:38 | 25.70617 | -80.43266 | 5306 ft | 256 kts | 269° |
| 2026-05-05 20:38 | 25.70507 | -80.45194 | 5160 ft | 246 kts | 267° |
| 2026-05-05 20:39 | 25.70340 | -80.47058 | 5020 ft | 238 kts | 266° |
| 2026-05-05 20:39 | 25.70174 | -80.48845 | 4896 ft | 229 kts | 266° |
| 2026-05-05 20:39 | 25.70008 | -80.50560 | 4777 ft | 220 kts | 266° |
| 2026-05-05 20:39 | 25.70026 | -80.52226 | 4588 ft | 215 kts | 288° |
| 2026-05-05 20:40 | 25.70829 | -80.53578 | 4299 ft | 213 kts | 322° |
| 2026-05-05 20:40 | 25.72190 | -80.54198 | 3988 ft | 214 kts | 351° |
| 2026-05-05 20:40 | 25.73668 | -80.54424 | 3697 ft | 215 kts | 355° |
| 2026-05-05 20:40 | 25.75165 | -80.54538 | 3409 ft | 216 kts | 5° |
| 2026-05-05 20:41 | 25.76526 | -80.53912 | 3121 ft | 217 kts | 47° |
| 2026-05-05 20:41 | 25.77363 | -80.52551 | 3004 ft | 211 kts | 64° |
| 2026-05-05 20:41 | 25.77788 | -80.50993 | 2995 ft | 213 kts | 83° |
| 2026-05-05 20:41 | 25.77858 | -80.49346 | 3005 ft | 215 kts | 89° |
| 2026-05-05 20:42 | 25.77920 | -80.47678 | 2911 ft | 216 kts | 86° |
| 2026-05-05 20:42 | 25.78004 | -80.46015 | 2614 ft | 217 kts | 88° |
| 2026-05-05 20:42 | 25.78068 | -80.44354 | 2310 ft | 218 kts | 88° |
| 2026-05-05 20:42 | 25.78136 | -80.42669 | 2004 ft | 219 kts | 87° |
| 2026-05-05 20:43 | 25.78209 | -80.40979 | 1731 ft | 220 kts | 88° |
| 2026-05-05 20:43 | 25.78276 | -80.39301 | 1419 ft | 213 kts | 87° |
| 2026-05-05 20:43 | 25.78343 | -80.37733 | 1185 ft | 192 kts | 88° |
| 2026-05-05 20:43 | 25.78404 | -80.36302 | 940 ft | 180 kts | 88° |
| 2026-05-05 20:44 | 25.78462 | -80.34975 | 722 ft | 163 kts | 88° |
| 2026-05-05 20:44 | 25.78509 | -80.33784 | 523 ft | 147 kts | 88° |
| 2026-05-05 20:44 | 25.78559 | -80.32699 | 310 ft | 134 kts | 87° |
| 2026-05-05 20:44 | 25.78608 | -80.31704 | 137 ft | 127 kts | 88° |
| 2026-05-05 20:45 | 25.78670 | -80.30104 | 23 ft | 41 kts | 87° |
| 2026-05-05 20:45 | 25.78680 | -80.29856 | 21 ft | 31 kts | 87° |
| 2026-05-05 20:45 | 25.78689 | -80.29627 | 22 ft | 29 kts | 88° |
| 2026-05-05 20:46 | 25.78699 | -80.29406 | 21 ft | 26 kts | 86° |
| 2026-05-05 20:46 | 25.78729 | -80.29255 | 25 ft | 14 kts | 66° |
| 2026-05-05 20:46 | 25.78779 | -80.29181 | 21 ft | 11 kts | 37° |
| 2026-05-05 20:46 | 25.78815 | -80.29142 | 20 ft | 5 kts | 73° |
| 2026-05-05 20:47 | 25.78822 | -80.29089 | 20 ft | 11 kts | 84° |
| 2026-05-05 20:47 | 25.78834 | -80.29000 | 21 ft | 12 kts | 78° |
| 2026-05-05 20:47 | 25.78853 | -80.28905 | 20 ft | 13 kts | 77° |
| 2026-05-05 20:47 | 25.78869 | -80.28793 | 18 ft | 16 kts | 86° |
| 2026-05-05 20:48 | 25.78876 | -80.28669 | 19 ft | 16 kts | 83° |
| 2026-05-05 20:48 | 25.78935 | -80.28578 | 21 ft | 14 kts | 36° |
| 2026-05-05 20:48 | 25.79020 | -80.28513 | 21 ft | 16 kts | 28° |
| 2026-05-05 20:48 | 25.79116 | -80.28451 | 21 ft | 16 kts | 35° |
| 2026-05-05 20:49 | 25.79211 | -80.28394 | 27 ft | 15 kts | 26° |
| 2026-05-05 20:49 | 25.79282 | -80.28322 | 29 ft | 10 kts | 57° |
| 2026-05-05 20:49 | 25.79269 | -80.28274 | 30 ft | 5 kts | 125° |
| 2026-05-05 20:49 | 25.79262 | -80.28263 | 30 ft | 3 kts | 126° |
| 2026-05-05 20:50 | 25.79256 | -80.28255 | 25 ft | 0 kts | 130° |
| 2026-05-05 20:50 | 25.79254 | -80.28253 | 25 ft | 0 kts | 130° |